»·PEaware :: SKW3043 KABQ-KPHX

SKW3043 :: KABQ-KPHX

FLIGHT INFORMATION

Flight Status: Arrived
Operator:
SkyWest Airlines
More flights by this operator :: More flights under this callsign
Pilot: Sean R. (2202)
Aircraft: CANADAIR CL-600 CRJ-200
(CRJ2)
More flights by this aircraft type
Origin: KABQ Albuquerque Intl Sunport
United States
Destination: KPHX Phoenix Sky Harbor Intl
United States
More flights between these airports :: More routes between these airports
Route: RDRNR3 ZUN EAGUL6
File this flight plan on PilotEdge
Remarks:
Altitude:
(Current/Filed)
28,000ft
Speed:
(Current/Filed)
400kts
Departed: 07-Jan-17 02:33 PM
Arrived: 07-Jan-17 03:42 PM
Distance/Time
Traveled:
284nm/1:09
Distance/Time
To Go:
Arrived

Flight Plot

Page will automatically refresh every two minutes.


Map Options




Map Legend


Flown Route
Filed Route
Departure Airport
Arrival Airport
Navaid (VOR, NDB)
Fix

Horizontal Profiles

Position Reports

Time Latitude Longitude Heading Altitude Ground
Speed
07-Jan-17 13:52 35.046946 -106.616388 12 5310ft 0kts
07-Jan-17 13:53 35.046946 -106.616388 12 5310ft 0kts
07-Jan-17 13:54 35.046946 -106.616388 12 5310ft 0kts
07-Jan-17 13:59 35.046926 -106.616905 14 5359ft 0kts
07-Jan-17 14:00 35.046926 -106.616905 14 5359ft 0kts
07-Jan-17 14:01 35.046926 -106.616905 14 5359ft 0kts
07-Jan-17 14:02 35.046926 -106.616905 14 5359ft 0kts
07-Jan-17 14:03 35.046926 -106.616905 14 5359ft 0kts
07-Jan-17 14:04 35.046926 -106.616905 14 5359ft 0kts
07-Jan-17 14:05 35.046926 -106.616905 14 5359ft 0kts
07-Jan-17 14:06 35.046926 -106.616905 14 5359ft 0kts
07-Jan-17 14:07 35.046926 -106.616905 14 5359ft 0kts
07-Jan-17 14:08 35.046926 -106.616905 14 5359ft 0kts
07-Jan-17 14:09 35.046926 -106.616905 14 5359ft 0kts
07-Jan-17 14:10 35.046926 -106.616905 14 5359ft 0kts
07-Jan-17 14:11 35.046926 -106.616905 14 5359ft 0kts
07-Jan-17 14:12 35.046926 -106.616905 14 5359ft 0kts
07-Jan-17 14:13 35.046926 -106.616905 14 5359ft 0kts
07-Jan-17 14:14 35.046926 -106.616905 14 5359ft 0kts
07-Jan-17 14:15 35.046926 -106.616905 14 5359ft 0kts
07-Jan-17 14:16 35.046926 -106.616905 14 5359ft 0kts
07-Jan-17 14:17 35.046926 -106.616905 14 5359ft 0kts
07-Jan-17 14:18 35.046926 -106.616905 14 5359ft 0kts
07-Jan-17 14:19 35.046926 -106.616905 14 5359ft 0kts
07-Jan-17 14:20 35.046926 -106.616905 14 5359ft 0kts
07-Jan-17 14:21 35.046926 -106.616905 14 5359ft 0kts
07-Jan-17 14:22 35.046926 -106.616905 14 5359ft 0kts
07-Jan-17 14:23 35.046966 -106.616910 343 5359ft 2kts
07-Jan-17 14:24 35.046836 -106.617146 210 5359ft 0kts
07-Jan-17 14:25 35.046836 -106.617146 210 5359ft 0kts
07-Jan-17 14:26 35.046836 -106.617146 210 5359ft 0kts
07-Jan-17 14:27 35.046836 -106.617146 210 5359ft 0kts
07-Jan-17 14:28 35.046836 -106.617146 210 5359ft 0kts
07-Jan-17 14:29 35.046836 -106.617146 210 5359ft 0kts
07-Jan-17 14:30 35.045596 -106.619589 269 5359ft 26kts
07-Jan-17 14:31 35.045349 -106.621374 185 5359ft 0kts
07-Jan-17 14:32 35.045349 -106.621374 185 5359ft 0kts
07-Jan-17 14:33 35.044297 -106.615477 89 5359ft 97kts
07-Jan-17 14:34 35.042055 -106.553843 92 6679ft 235kts
07-Jan-17 14:35 35.071983 -106.481981 12 8807ft 277kts
07-Jan-17 14:36 35.126475 -106.533577 275 10812ft 315kts
07-Jan-17 14:37 35.098021 -106.638037 261 12808ft 337kts
07-Jan-17 14:38 35.092046 -106.753365 273 14806ft 347kts
07-Jan-17 14:39 35.108173 -106.870045 280 16792ft 351kts
07-Jan-17 14:40 35.093662 -106.988067 258 17912ft 374kts
07-Jan-17 14:41 35.068868 -107.111524 257 18236ft 392kts
07-Jan-17 14:42 35.044021 -107.235726 257 19574ft 376kts
07-Jan-17 14:43 35.034942 -107.356047 268 21543ft 345kts
07-Jan-17 14:44 35.031306 -107.467244 269 23494ft 320kts
07-Jan-17 14:45 35.027936 -107.570221 270 25425ft 301kts
07-Jan-17 14:46 35.024659 -107.667713 271 27372ft 276kts
07-Jan-17 14:47 35.021529 -107.760292 271 27888ft 294kts
07-Jan-17 14:48 35.017930 -107.863162 270 27884ft 319kts
07-Jan-17 14:49 35.014022 -107.971820 270 27882ft 336kts
07-Jan-17 14:50 35.009755 -108.087531 270 27880ft 349kts
07-Jan-17 14:51 35.005538 -108.206887 269 27892ft 362kts
07-Jan-17 14:52 35.000690 -108.332579 269 27883ft 383kts
07-Jan-17 14:53 34.995430 -108.464363 269 27865ft 398kts
07-Jan-17 14:54 34.989946 -108.598165 269 27859ft 406kts
07-Jan-17 14:55 34.984207 -108.734462 269 27856ft 410kts
07-Jan-17 14:56 34.978206 -108.873199 269 27854ft 411kts
07-Jan-17 14:57 34.972068 -109.011911 269 27851ft 412kts
07-Jan-17 14:58 34.965765 -109.147516 263 27846ft 414kts
07-Jan-17 14:59 34.921058 -109.277701 249 27841ft 421kts
07-Jan-17 15:00 34.873535 -109.407561 249 27833ft 423kts
07-Jan-17 15:01 34.826494 -109.535676 249 27832ft 424kts
07-Jan-17 15:02 34.778342 -109.666287 249 27830ft 424kts
07-Jan-17 15:03 34.730346 -109.795951 249 27839ft 423kts
07-Jan-17 15:04 34.681952 -109.926166 249 27853ft 423kts
07-Jan-17 15:05 34.634963 -110.052037 249 27166ft 381kts
07-Jan-17 15:06 34.595451 -110.158258 249 25662ft 331kts
07-Jan-17 15:07 34.559566 -110.254058 249 24165ft 304kts
07-Jan-17 15:08 34.525305 -110.345033 249 23826ft 290kts
07-Jan-17 15:09 34.492259 -110.432525 249 22332ft 283kts
07-Jan-17 15:10 34.459779 -110.518279 248 20675ft 282kts
07-Jan-17 15:11 34.427163 -110.604240 248 18899ft 286kts
07-Jan-17 15:12 34.394156 -110.690929 247 17125ft 290kts
07-Jan-17 15:13 34.360327 -110.779525 247 15330ft 294kts
07-Jan-17 15:14 34.308291 -110.854436 230 13560ft 300kts
07-Jan-17 15:15 34.254015 -110.924774 230 13077ft 283kts
07-Jan-17 15:16 34.201148 -110.992996 230 13076ft 286kts
07-Jan-17 15:17 34.147190 -111.062462 231 13076ft 288kts
07-Jan-17 15:18 34.093958 -111.130718 231 13082ft 288kts
07-Jan-17 15:19 34.040093 -111.199503 231 13081ft 290kts
07-Jan-17 15:20 33.985019 -111.269530 231 13079ft 288kts
07-Jan-17 15:21 33.929635 -111.339598 231 12852ft 297kts
07-Jan-17 15:22 33.873798 -111.410028 231 11857ft 284kts
07-Jan-17 15:23 33.820078 -111.476900 231 11039ft 275kts
07-Jan-17 15:24 33.782770 -111.552762 269 11021ft 272kts
07-Jan-17 15:25 33.755074 -111.638574 244 11002ft 287kts
07-Jan-17 15:26 33.712896 -111.720914 241 11009ft 292kts
07-Jan-17 15:27 33.667330 -111.806987 241 10076ft 322kts
07-Jan-17 15:28 33.624163 -111.888022 242 10011ft 263kts
07-Jan-17 15:29 33.584672 -111.962228 242 8185ft 257kts
07-Jan-17 15:30 33.547925 -112.031104 242 6994ft 228kts
07-Jan-17 15:31 33.526422 -112.087549 268 6977ft 164kts
07-Jan-17 15:32 33.518793 -112.155197 267 7009ft 221kts
07-Jan-17 15:33 33.511393 -112.230978 267 5947ft 235kts
07-Jan-17 15:34 33.505432 -112.309556 265 4372ft 241kts
07-Jan-17 15:35 33.459986 -112.333694 150 4008ft 198kts
07-Jan-17 15:36 33.412774 -112.304998 150 3993ft 186kts
07-Jan-17 15:37 33.410175 -112.259667 49 4013ft 185kts
07-Jan-17 15:38 33.441921 -112.206317 81 3687ft 213kts
07-Jan-17 15:39 33.440826 -112.142022 88 2985ft 167kts
07-Jan-17 15:40 33.440840 -112.086889 89 2142ft 145kts
07-Jan-17 15:41 33.440875 -112.037498 88 1321ft 145kts
07-Jan-17 15:42 33.440712 -112.007836 115 1139ft 13kts
07-Jan-17 15:43 33.440125 -112.007031 136 1139ft 0kts
07-Jan-17 15:44 33.439897 -112.006681 114 1139ft 0kts
07-Jan-17 15:45 33.439897 -112.006681 114 1139ft 0kts
07-Jan-17 15:46 33.439268 -112.004744 183 1139ft 8kts
07-Jan-17 15:47 33.438418 -112.007406 168 1139ft 2kts
07-Jan-17 15:48 33.437413 -112.008022 262 1139ft 7kts
07-Jan-17 15:49 33.437409 -112.008209 269 1139ft 0kts

Navigation Log

Ident Type
1. KABQ Airport
2. ZUN Navaid
3. DOJOE Fix
4. SLIDR Fix
5. PAYSO Fix
6. EAGUL Fix
7. PICHR Fix
8. HOMRR Fix
9. QUENY Fix
10. HINEY Fix
11. BASBL Fix
12. KPHX Airport